Telferner, TX

7:17 AM CST on March 02, 2015 (GMT -0600)
Victoria Regional | Change Station
CLOSE
Current Station
Airport
Location: Victoria,
Elevation: 115 ft
Nearby Weather Stations

Elev 115 ft 28.86 °N, 96.93 °W | Updated 26 minutes ago

Overcast
Overcast
44 °F
Feels Like 38 °F
N
12
Wind Variable Wind from North

Today
High -- | Low -- °F
--% Chance of Precip.
Yesterday
High -- | Low -- °F
Precip. -- in
6:51 AM 6:28 PM
Waxing Gibbous, 91% visible
Pressure 30.27 in
Visibility 3.0 miles
Clouds Overcast 300 ft
Windchill 38 °F
Dew Point 43 °F
Humidity 96%
Rainfall 0.00 in
Snow Depth Not available.
UV 0 out of 12
Pollen 5.70 out of 12
Air Quality Not available.
Flu Activity Not available.
METAR KVCT 021251Z 36010KT 3SM BR OVC003 07/06 A3027 RMK AO2 SLP250 T00670061

More Conditions Fewer Conditions

Pressure 30.27 in
Visibility 3.0 miles
Clouds Overcast 300 ft
Windchill 38 °F
Dew Point 43 °F
Humidity 96%
Rainfall 0.00 in
Snow Depth Not available.
UV 0 out of 12
Pollen 5.70 out of 12
Air Quality Not available.
Flu Activity Not available.
METAR KVCT 021251Z 36010KT 3SM BR OVC003 07/06 A3027 RMK AO2 SLP250 T00670061

More Conditions Fewer Conditions

Nowcast | as of 6:42 am CST on March 2, 2015

Through 830 am CST...patchy light rain and drizzle will continue to affect much of south Texas. Rainfall rates will generally not exceed a few hundredths of an inch per hour...and will only amount to a trace in most locations. Additionally...areas of fog with visibilities in the 2 to 4 mile range will affect much of the region. Some locations may see visibilities drop below one mile at times. Drivers should take the appropriate precautions.

×

10-Day Weather Forecast

Almanac

Astronomy

Mar. 02, 2015 Rise Set
Actual Time
Civil Twilight
Nautical Twilight
Astronomical Twilight
Moon
Length of Visible Light
Length of Day
Tomorrow will be .
, % of the Moon is Illuminated

Today's Extremes

State Highs State Lows

Community

WunderPhotos

Upload Photos

1,801,781 photos uploaded!

WunderBlogs® & News

Nearby

Air Quality

  Air Quality AQ Index Pollutant
Not available.

Snow Depth

Station Depth Elevation

Earthquake Activity

City Distance Mag. Time & Date
Minimum magnitude displayed is 2.5.

Coastal Water Temperatures

Place Temperature

Nearby Weather Stations